sensor_id;sensor_type;location;lat;lon;timestamp;temperature;humidity
48328;DHT22;34136;51.022;7.082;2023-07-28T00:00:06;18.00;1.00
48328;DHT22;34136;51.022;7.082;2023-07-28T00:02:56;18.00;1.00
48328;DHT22;34136;51.022;7.082;2023-07-28T00:05:42;18.00;1.00
48328;DHT22;34136;51.022;7.082;2023-07-28T00:08:28;17.90;1.00
48328;DHT22;34136;51.022;7.082;2023-07-28T00:11:15;17.90;1.00
48328;DHT22;34136;51.022;7.082;2023-07-28T00:14:01;17.90;1.00
48328;DHT22;34136;51.022;7.082;2023-07-28T00:16:47;18.00;1.00
48328;DHT22;34136;51.022;7.082;2023-07-28T00:19:33;18.10;1.00
48328;DHT22;34136;51.022;7.082;2023-07-28T00:22:22;18.10;1.00
48328;DHT22;34136;51.022;7.082;2023-07-28T00:25:08;18.10;1.00
48328;DHT22;34136;51.022;7.082;2023-07-28T00:27:55;18.10;1.00
48328;DHT22;34136;51.022;7.082;2023-07-28T00:30:41;18.10;1.00
48328;DHT22;34136;51.022;7.082;2023-07-28T00:33:28;18.10;1.00
48328;DHT22;34136;51.022;7.082;2023-07-28T00:36:14;18.10;1.00
48328;DHT22;34136;51.022;7.082;2023-07-28T00:39:00;18.10;1.00
48328;DHT22;34136;51.022;7.082;2023-07-28T00:41:46;18.10;1.00
48328;DHT22;34136;51.022;7.082;2023-07-28T00:44:32;18.10;1.00
48328;DHT22;34136;51.022;7.082;2023-07-28T00:47:18;18.10;1.00
48328;DHT22;34136;51.022;7.082;2023-07-28T00:50:05;18.20;1.00
48328;DHT22;34136;51.022;7.082;2023-07-28T00:52:51;18.20;1.00
48328;DHT22;34136;51.022;7.082;2023-07-28T00:55:38;18.20;1.00
48328;DHT22;34136;51.022;7.082;2023-07-28T00:58:25;18.20;1.00
48328;DHT22;34136;51.022;7.082;2023-07-28T01:01:12;18.20;1.00
48328;DHT22;34136;51.022;7.082;2023-07-28T01:03:58;18.20;1.00
48328;DHT22;34136;51.022;7.082;2023-07-28T01:06:57;18.20;1.00
48328;DHT22;34136;51.022;7.082;2023-07-28T01:12:35;18.20;1.00
48328;DHT22;34136;51.022;7.082;2023-07-28T01:15:22;18.20;1.00
48328;DHT22;34136;51.022;7.082;2023-07-28T01:18:08;18.30;1.00
48328;DHT22;34136;51.022;7.082;2023-07-28T01:20:57;18.30;1.00
48328;DHT22;34136;51.022;7.082;2023-07-28T01:26:48;18.30;1.00
48328;DHT22;34136;51.022;7.082;2023-07-28T01:29:36;18.30;1.00
48328;DHT22;34136;51.022;7.082;2023-07-28T01:32:22;18.40;1.00
48328;DHT22;34136;51.022;7.082;2023-07-28T01:35:09;18.40;1.00
48328;DHT22;34136;51.022;7.082;2023-07-28T01:37:55;18.40;1.00
48328;DHT22;34136;51.022;7.082;2023-07-28T01:40:42;18.40;1.00
48328;DHT22;34136;51.022;7.082;2023-07-28T01:43:28;18.40;1.00
48328;DHT22;34136;51.022;7.082;2023-07-28T01:46:14;18.40;1.00
48328;DHT22;34136;51.022;7.082;2023-07-28T01:49:01;18.40;1.00
48328;DHT22;34136;51.022;7.082;2023-07-28T01:51:47;18.30;1.00
48328;DHT22;34136;51.022;7.082;2023-07-28T01:54:33;18.30;1.00
48328;DHT22;34136;51.022;7.082;2023-07-28T01:57:19;18.40;1.00
48328;DHT22;34136;51.022;7.082;2023-07-28T02:00:06;18.30;1.00
48328;DHT22;34136;51.022;7.082;2023-07-28T02:03:05;18.30;1.00
48328;DHT22;34136;51.022;7.082;2023-07-28T02:05:52;18.10;1.00
48328;DHT22;34136;51.022;7.082;2023-07-28T02:08:38;18.10;1.00
48328;DHT22;34136;51.022;7.082;2023-07-28T02:11:25;18.20;1.00
48328;DHT22;34136;51.022;7.082;2023-07-28T02:14:11;18.20;1.00
48328;DHT22;34136;51.022;7.082;2023-07-28T02:16:57;18.20;1.00
48328;DHT22;34136;51.022;7.082;2023-07-28T02:19:43;18.20;1.00
48328;DHT22;34136;51.022;7.082;2023-07-28T02:22:30;18.20;1.00
48328;DHT22;34136;51.022;7.082;2023-07-28T02:25:16;18.20;1.00
48328;DHT22;34136;51.022;7.082;2023-07-28T02:28:02;18.10;1.00
48328;DHT22;34136;51.022;7.082;2023-07-28T02:30:48;18.10;1.00
48328;DHT22;34136;51.022;7.082;2023-07-28T02:33:35;18.20;1.00
48328;DHT22;34136;51.022;7.082;2023-07-28T02:36:21;18.10;1.00
48328;DHT22;34136;51.022;7.082;2023-07-28T02:39:07;18.20;1.00
48328;DHT22;34136;51.022;7.082;2023-07-28T02:41:54;18.10;1.00
48328;DHT22;34136;51.022;7.082;2023-07-28T02:44:40;18.20;1.00
48328;DHT22;34136;51.022;7.082;2023-07-28T02:47:26;18.20;1.00
48328;DHT22;34136;51.022;7.082;2023-07-28T02:50:12;18.20;1.00
48328;DHT22;34136;51.022;7.082;2023-07-28T02:52:59;18.20;1.00
48328;DHT22;34136;51.022;7.082;2023-07-28T02:55:46;18.10;1.00
48328;DHT22;34136;51.022;7.082;2023-07-28T02:58:32;18.20;1.00
48328;DHT22;34136;51.022;7.082;2023-07-28T03:01:19;18.10;1.00
48328;DHT22;34136;51.022;7.082;2023-07-28T03:04:05;18.10;1.00
48328;DHT22;34136;51.022;7.082;2023-07-28T03:07:06;18.10;1.00
48328;DHT22;34136;51.022;7.082;2023-07-28T03:09:52;18.00;1.00
48328;DHT22;34136;51.022;7.082;2023-07-28T03:12:38;18.00;1.00
48328;DHT22;34136;51.022;7.082;2023-07-28T03:15:24;18.00;1.00
48328;DHT22;34136;51.022;7.082;2023-07-28T03:18:11;18.00;1.00
48328;DHT22;34136;51.022;7.082;2023-07-28T03:20:57;18.00;1.00
48328;DHT22;34136;51.022;7.082;2023-07-28T03:23:43;18.00;1.00
48328;DHT22;34136;51.022;7.082;2023-07-28T03:26:30;18.00;1.00
48328;DHT22;34136;51.022;7.082;2023-07-28T03:29:16;18.00;1.00
48328;DHT22;34136;51.022;7.082;2023-07-28T03:32:03;18.00;1.00
48328;DHT22;34136;51.022;7.082;2023-07-28T03:34:49;18.10;1.00
48328;DHT22;34136;51.022;7.082;2023-07-28T03:37:39;18.10;1.00
48328;DHT22;34136;51.022;7.082;2023-07-28T03:40:25;18.10;1.00
48328;DHT22;34136;51.022;7.082;2023-07-28T03:43:14;18.10;1.00
48328;DHT22;34136;51.022;7.082;2023-07-28T03:46:00;18.10;1.00
48328;DHT22;34136;51.022;7.082;2023-07-28T03:48:47;18.10;1.00
48328;DHT22;34136;51.022;7.082;2023-07-28T03:51:33;18.10;1.00
48328;DHT22;34136;51.022;7.082;2023-07-28T03:54:19;18.10;1.00
48328;DHT22;34136;51.022;7.082;2023-07-28T03:57:06;18.10;1.00
48328;DHT22;34136;51.022;7.082;2023-07-28T03:59:52;18.10;1.00
48328;DHT22;34136;51.022;7.082;2023-07-28T04:02:39;18.10;1.00
48328;DHT22;34136;51.022;7.082;2023-07-28T04:05:25;18.10;1.00
48328;DHT22;34136;51.022;7.082;2023-07-28T04:08:11;18.10;1.00
48328;DHT22;34136;51.022;7.082;2023-07-28T04:10:57;18.10;1.00
48328;DHT22;34136;51.022;7.082;2023-07-28T04:13:44;18.10;1.00
48328;DHT22;34136;51.022;7.082;2023-07-28T04:16:31;18.20;1.00
48328;DHT22;34136;51.022;7.082;2023-07-28T04:19:17;18.10;1.00
48328;DHT22;34136;51.022;7.082;2023-07-28T04:22:03;18.10;1.00
48328;DHT22;34136;51.022;7.082;2023-07-28T04:27:39;18.10;1.00
48328;DHT22;34136;51.022;7.082;2023-07-28T04:30:29;18.10;1.00
48328;DHT22;34136;51.022;7.082;2023-07-28T04:33:15;18.10;1.00
48328;DHT22;34136;51.022;7.082;2023-07-28T04:36:03;18.10;1.00
48328;DHT22;34136;51.022;7.082;2023-07-28T04:38:54;18.10;1.00
48328;DHT22;34136;51.022;7.082;2023-07-28T04:41:43;18.10;1.00
48328;DHT22;34136;51.022;7.082;2023-07-28T04:44:30;18.20;1.00
48328;DHT22;34136;51.022;7.082;2023-07-28T04:47:20;18.20;1.00
48328;DHT22;34136;51.022;7.082;2023-07-28T04:50:06;18.20;1.00
48328;DHT22;34136;51.022;7.082;2023-07-28T04:53:12;18.20;1.00
48328;DHT22;34136;51.022;7.082;2023-07-28T04:56:12;18.20;1.00
48328;DHT22;34136;51.022;7.082;2023-07-28T04:58:58;18.20;1.00
48328;DHT22;34136;51.022;7.082;2023-07-28T05:01:45;18.20;1.00
48328;DHT22;34136;51.022;7.082;2023-07-28T05:04:31;18.20;1.00
48328;DHT22;34136;51.022;7.082;2023-07-28T05:07:17;18.30;1.00
48328;DHT22;34136;51.022;7.082;2023-07-28T05:10:04;18.30;1.00
48328;DHT22;34136;51.022;7.082;2023-07-28T05:12:51;18.30;1.00
48328;DHT22;34136;51.022;7.082;2023-07-28T05:15:37;18.30;1.00
48328;DHT22;34136;51.022;7.082;2023-07-28T05:18:26;18.40;1.00
48328;DHT22;34136;51.022;7.082;2023-07-28T05:21:35;18.30;1.00
48328;DHT22;34136;51.022;7.082;2023-07-28T05:24:21;18.20;1.00
48328;DHT22;34136;51.022;7.082;2023-07-28T05:27:08;18.30;1.00
48328;DHT22;34136;51.022;7.082;2023-07-28T05:29:54;18.40;1.00
48328;DHT22;34136;51.022;7.082;2023-07-28T05:32:41;18.40;1.00
48328;DHT22;34136;51.022;7.082;2023-07-28T05:35:35;18.40;1.00
48328;DHT22;34136;51.022;7.082;2023-07-28T05:38:21;18.50;1.00
48328;DHT22;34136;51.022;7.082;2023-07-28T05:41:08;18.50;1.00
48328;DHT22;34136;51.022;7.082;2023-07-28T05:43:54;18.50;1.00
48328;DHT22;34136;51.022;7.082;2023-07-28T05:46:40;18.40;1.00
48328;DHT22;34136;51.022;7.082;2023-07-28T05:49:27;18.50;1.00
48328;DHT22;34136;51.022;7.082;2023-07-28T05:52:14;18.50;1.00
48328;DHT22;34136;51.022;7.082;2023-07-28T05:55:00;18.50;1.00
48328;DHT22;34136;51.022;7.082;2023-07-28T05:57:47;18.60;1.00
48328;DHT22;34136;51.022;7.082;2023-07-28T06:00:33;18.60;1.00
48328;DHT22;34136;51.022;7.082;2023-07-28T06:03:22;18.60;1.00
48328;DHT22;34136;51.022;7.082;2023-07-28T06:06:22;18.60;1.00
48328;DHT22;34136;51.022;7.082;2023-07-28T06:09:08;18.60;1.00
48328;DHT22;34136;51.022;7.082;2023-07-28T06:11:55;18.60;1.00
48328;DHT22;34136;51.022;7.082;2023-07-28T06:14:45;18.60;1.00
48328;DHT22;34136;51.022;7.082;2023-07-28T06:17:32;18.60;1.00
48328;DHT22;34136;51.022;7.082;2023-07-28T06:20:18;18.60;1.00
48328;DHT22;34136;51.022;7.082;2023-07-28T06:23:04;18.60;1.00
48328;DHT22;34136;51.022;7.082;2023-07-28T06:25:51;18.60;1.00
48328;DHT22;34136;51.022;7.082;2023-07-28T06:28:37;18.70;1.00
48328;DHT22;34136;51.022;7.082;2023-07-28T06:31:24;18.70;1.00
48328;DHT22;34136;51.022;7.082;2023-07-28T06:34:10;18.70;1.00
48328;DHT22;34136;51.022;7.082;2023-07-28T06:36:56;18.70;1.00
48328;DHT22;34136;51.022;7.082;2023-07-28T06:39:43;18.70;1.00
48328;DHT22;34136;51.022;7.082;2023-07-28T06:42:29;18.80;1.00
48328;DHT22;34136;51.022;7.082;2023-07-28T06:45:16;18.80;1.00
48328;DHT22;34136;51.022;7.082;2023-07-28T06:48:03;18.90;1.00
48328;DHT22;34136;51.022;7.082;2023-07-28T06:50:50;18.90;1.00
48328;DHT22;34136;51.022;7.082;2023-07-28T06:53:36;18.90;1.00
48328;DHT22;34136;51.022;7.082;2023-07-28T06:56:22;18.90;1.00
48328;DHT22;34136;51.022;7.082;2023-07-28T06:59:10;18.90;1.00
48328;DHT22;34136;51.022;7.082;2023-07-28T07:01:56;18.80;1.00
48328;DHT22;34136;51.022;7.082;2023-07-28T07:04:43;18.80;1.00
48328;DHT22;34136;51.022;7.082;2023-07-28T07:07:29;18.90;1.00
48328;DHT22;34136;51.022;7.082;2023-07-28T07:10:15;18.90;1.00
48328;DHT22;34136;51.022;7.082;2023-07-28T07:13:02;18.90;1.00
48328;DHT22;34136;51.022;7.082;2023-07-28T07:15:48;18.90;1.00
48328;DHT22;34136;51.022;7.082;2023-07-28T07:18:34;18.90;1.00
48328;DHT22;34136;51.022;7.082;2023-07-28T07:21:20;19.00;1.00
48328;DHT22;34136;51.022;7.082;2023-07-28T07:24:07;19.00;1.00
48328;DHT22;34136;51.022;7.082;2023-07-28T07:26:53;19.00;1.00
48328;DHT22;34136;51.022;7.082;2023-07-28T07:29:39;19.10;1.00
48328;DHT22;34136;51.022;7.082;2023-07-28T07:32:25;19.10;1.00
48328;DHT22;34136;51.022;7.082;2023-07-28T07:35:11;19.10;1.00
48328;DHT22;34136;51.022;7.082;2023-07-28T07:37:57;19.10;1.00
48328;DHT22;34136;51.022;7.082;2023-07-28T07:40:46;19.10;1.00
48328;DHT22;34136;51.022;7.082;2023-07-28T07:43:32;19.20;1.00
48328;DHT22;34136;51.022;7.082;2023-07-28T07:46:19;19.30;1.00
48328;DHT22;34136;51.022;7.082;2023-07-28T07:49:06;19.30;1.00
48328;DHT22;34136;51.022;7.082;2023-07-28T07:51:52;19.20;1.00
48328;DHT22;34136;51.022;7.082;2023-07-28T07:54:38;19.20;1.00
48328;DHT22;34136;51.022;7.082;2023-07-28T07:57:24;19.20;1.00
48328;DHT22;34136;51.022;7.082;2023-07-28T08:00:11;19.20;1.00
48328;DHT22;34136;51.022;7.082;2023-07-28T08:02:59;19.30;1.00
48328;DHT22;34136;51.022;7.082;2023-07-28T08:05:46;19.30;1.00
48328;DHT22;34136;51.022;7.082;2023-07-28T08:08:32;19.30;1.00
48328;DHT22;34136;51.022;7.082;2023-07-28T08:11:18;19.30;1.00
48328;DHT22;34136;51.022;7.082;2023-07-28T08:14:05;19.40;1.00
48328;DHT22;34136;51.022;7.082;2023-07-28T08:16:51;19.40;1.00
48328;DHT22;34136;51.022;7.082;2023-07-28T08:19:37;19.50;1.00
48328;DHT22;34136;51.022;7.082;2023-07-28T08:22:24;19.60;1.00
48328;DHT22;34136;51.022;7.082;2023-07-28T08:25:10;19.60;1.00
48328;DHT22;34136;51.022;7.082;2023-07-28T08:27:56;19.60;1.00
48328;DHT22;34136;51.022;7.082;2023-07-28T08:30:42;19.50;1.00
48328;DHT22;34136;51.022;7.082;2023-07-28T08:33:29;19.50;1.00
48328;DHT22;34136;51.022;7.082;2023-07-28T08:36:15;19.60;1.00
48328;DHT22;34136;51.022;7.082;2023-07-28T08:39:02;19.60;1.00
48328;DHT22;34136;51.022;7.082;2023-07-28T08:41:57;19.70;1.00
48328;DHT22;34136;51.022;7.082;2023-07-28T08:44:44;19.70;1.00
48328;DHT22;34136;51.022;7.082;2023-07-28T08:47:31;19.70;1.00
48328;DHT22;34136;51.022;7.082;2023-07-28T08:50:17;19.80;1.00
48328;DHT22;34136;51.022;7.082;2023-07-28T08:53:04;19.90;1.00
48328;DHT22;34136;51.022;7.082;2023-07-28T08:55:51;19.90;1.00
48328;DHT22;34136;51.022;7.082;2023-07-28T08:58:37;20.10;1.00
48328;DHT22;34136;51.022;7.082;2023-07-28T09:01:24;20.20;1.00
48328;DHT22;34136;51.022;7.082;2023-07-28T09:04:10;20.30;1.00
48328;DHT22;34136;51.022;7.082;2023-07-28T09:06:57;20.50;1.00
48328;DHT22;34136;51.022;7.082;2023-07-28T09:09:43;20.70;1.00
48328;DHT22;34136;51.022;7.082;2023-07-28T09:12:45;20.80;1.00
48328;DHT22;34136;51.022;7.082;2023-07-28T09:15:35;21.10;1.00
48328;DHT22;34136;51.022;7.082;2023-07-28T09:18:25;21.20;1.00
48328;DHT22;34136;51.022;7.082;2023-07-28T09:21:23;21.30;1.00
48328;DHT22;34136;51.022;7.082;2023-07-28T09:24:11;21.50;1.00
48328;DHT22;34136;51.022;7.082;2023-07-28T09:27:00;21.50;1.00
48328;DHT22;34136;51.022;7.082;2023-07-28T09:30:11;21.70;1.00
48328;DHT22;34136;51.022;7.082;2023-07-28T09:32:58;21.80;1.00
48328;DHT22;34136;51.022;7.082;2023-07-28T09:35:48;21.60;1.00
48328;DHT22;34136;51.022;7.082;2023-07-28T09:38:37;21.60;1.00
48328;DHT22;34136;51.022;7.082;2023-07-28T09:41:29;21.70;1.00
48328;DHT22;34136;51.022;7.082;2023-07-28T09:44:41;21.60;1.00
48328;DHT22;34136;51.022;7.082;2023-07-28T09:47:29;21.70;1.00
48328;DHT22;34136;51.022;7.082;2023-07-28T09:50:17;21.80;1.00
48328;DHT22;34136;51.022;7.082;2023-07-28T09:53:04;21.90;1.00
48328;DHT22;34136;51.022;7.082;2023-07-28T09:55:51;22.00;1.00
48328;DHT22;34136;51.022;7.082;2023-07-28T09:58:40;21.90;1.00
48328;DHT22;34136;51.022;7.082;2023-07-28T10:01:28;21.80;1.00
48328;DHT22;34136;51.022;7.082;2023-07-28T10:04:17;21.90;1.00
48328;DHT22;34136;51.022;7.082;2023-07-28T10:07:05;21.90;1.00
48328;DHT22;34136;51.022;7.082;2023-07-28T10:09:56;21.90;1.00
48328;DHT22;34136;51.022;7.082;2023-07-28T10:12:53;21.90;1.00
48328;DHT22;34136;51.022;7.082;2023-07-28T10:15:45;21.90;1.00
48328;DHT22;34136;51.022;7.082;2023-07-28T10:18:31;21.90;1.00
48328;DHT22;34136;51.022;7.082;2023-07-28T10:21:19;22.00;1.00
48328;DHT22;34136;51.022;7.082;2023-07-28T10:24:07;22.10;1.00
48328;DHT22;34136;51.022;7.082;2023-07-28T10:30:26;22.30;1.00
48328;DHT22;34136;51.022;7.082;2023-07-28T10:33:33;22.50;1.00
48328;DHT22;34136;51.022;7.082;2023-07-28T10:39:17;22.80;1.00
48328;DHT22;34136;51.022;7.082;2023-07-28T10:42:13;22.90;1.00
48328;DHT22;34136;51.022;7.082;2023-07-28T10:45:02;22.80;99.90
48328;DHT22;34136;51.022;7.082;2023-07-28T10:47:51;22.80;99.90
48328;DHT22;34136;51.022;7.082;2023-07-28T10:51:03;22.90;1.00
48328;DHT22;34136;51.022;7.082;2023-07-28T10:54:20;22.90;99.90
48328;DHT22;34136;51.022;7.082;2023-07-28T10:57:06;23.00;99.90
48328;DHT22;34136;51.022;7.082;2023-07-28T10:59:53;23.00;99.90
48328;DHT22;34136;51.022;7.082;2023-07-28T11:02:50;23.00;1.00
48328;DHT22;34136;51.022;7.082;2023-07-28T11:06:03;23.20;1.00
48328;DHT22;34136;51.022;7.082;2023-07-28T11:08:49;23.10;99.90
48328;DHT22;34136;51.022;7.082;2023-07-28T11:11:45;23.30;1.00
48328;DHT22;34136;51.022;7.082;2023-07-28T11:14:32;23.30;99.90
48328;DHT22;34136;51.022;7.082;2023-07-28T11:17:18;23.10;99.90
48328;DHT22;34136;51.022;7.082;2023-07-28T16:32:18;23.20;1.00
48328;DHT22;34136;51.022;7.082;2023-07-28T16:35:04;23.10;1.00
48328;DHT22;34136;51.022;7.082;2023-07-28T16:37:51;23.20;1.00
48328;DHT22;34136;51.022;7.082;2023-07-28T16:40:37;23.20;1.00
48328;DHT22;34136;51.022;7.082;2023-07-28T16:43:23;23.20;1.00
48328;DHT22;34136;51.022;7.082;2023-07-28T16:46:09;23.20;1.40
48328;DHT22;34136;51.022;7.082;2023-07-28T16:48:55;23.30;99.90
48328;DHT22;34136;51.022;7.082;2023-07-28T16:51:42;23.30;99.90
48328;DHT22;34136;51.022;7.082;2023-07-28T16:54:28;23.30;99.90
48328;DHT22;34136;51.022;7.082;2023-07-28T16:57:14;23.40;99.90
48328;DHT22;34136;51.022;7.082;2023-07-28T17:00:01;23.40;99.90
48328;DHT22;34136;51.022;7.082;2023-07-28T17:02:48;23.30;99.90
48328;DHT22;34136;51.022;7.082;2023-07-28T17:05:34;23.30;99.90
48328;DHT22;34136;51.022;7.082;2023-07-28T17:08:20;23.40;99.90
48328;DHT22;34136;51.022;7.082;2023-07-28T17:11:06;23.40;99.90
48328;DHT22;34136;51.022;7.082;2023-07-28T17:13:53;23.40;99.90
48328;DHT22;34136;51.022;7.082;2023-07-28T17:16:42;23.60;99.90
48328;DHT22;34136;51.022;7.082;2023-07-28T17:19:28;23.40;99.90
48328;DHT22;34136;51.022;7.082;2023-07-28T17:22:14;23.50;99.90
48328;DHT22;34136;51.022;7.082;2023-07-28T17:25:00;23.60;99.90
48328;DHT22;34136;51.022;7.082;2023-07-28T17:27:46;23.60;99.90
